METAR UND TAF INFORMATION
LDSP 270230Z AUTO 36005KT 340V040 CAVOK 22/14 Q1017 NOSIG

 FLUGHAFENKARTE

 RUNWAY INFORMATION
Runway 05 Runway length 8366 ft Runway width 148 ft
Runway elevation 70 ft Runway displaced threshold 0 ft Runway heading 53
Runway 23 Runway length 8366 ft Runway width 148 ft
Runway elevation 50 ft Runway displaced threshold 525 ft Runway heading 233

 AIRPORT FREQUENCIES
Type APP Name APP Frequency 120.875 MHZ
Type INFO Name INFO Frequency 128.675 MHZ
Type TWR Name TWR Frequency 124.675 MHZ

 AIRPORT NEAR NAVIGATION AIDS
Type NDB Name Drvenik Frequency 418 KHZ
Type VOR-DME Name Split Frequency 115700 KHZ
Type NDB Name Trogir Frequency 378 KHZ



Aktuelle Version 4.2.2: Changelog

Impressum | Datenschutzerklärung

Powered by Cedric Balogh | Virtual Airlines Manager